Time;durP1;ratioP1;P1;durP2;ratioP2;P2;SDS_P1;SDS_P2;PMS_P1;PMS_P2;Temp;Humidity;BMP_temperature;BMP_pressure;BME280_temperature;BME280_humidity;BME280_pressure;Samples;Min_cycle;Max_cycle;Signal;HPM_P1;HPM_P2
2020/12/07 00:02:41;;;;;;;115.07;70.10;;;;;1.10;99453.00;;;;10162070;29;20778;-82
2020/12/07 00:07:44;;;;;;;123.13;70.37;;;;;1.20;99447.00;;;;10151579;29;20206;-85
2020/12/07 00:12:46;;;;;;;169.97;76.70;;;;;1.20;99442.00;;;;10164199;29;20282;-77
2020/12/07 00:17:48;;;;;;;191.67;79.90;;;;;1.30;99444.00;;;;10164765;29;20199;-78
2020/12/07 00:22:50;;;;;;;216.57;87.77;;;;;1.40;99444.00;;;;10157366;29;20645;-87
2020/12/07 00:27:53;;;;;;;279.13;88.93;;;;;1.40;99447.00;;;;10157669;29;20289;-85
2020/12/07 00:32:55;;;;;;;292.70;94.07;;;;;1.50;99434.00;;;;10174495;29;20223;-80
2020/12/07 00:37:57;;;;;;;318.30;92.70;;;;;1.50;99421.00;;;;10164851;29;20278;-78
2020/12/07 00:43:00;;;;;;;288.27;90.43;;;;;1.50;99436.00;;;;10144336;29;20239;-84
2020/12/07 00:48:02;;;;;;;337.37;92.47;;;;;1.60;99443.00;;;;10133223;29;20753;-78
2020/12/07 00:53:05;;;;;;;315.97;94.33;;;;;1.70;99434.00;;;;10166101;29;20226;-87
2020/12/07 00:58:07;;;;;;;325.60;92.43;;;;;1.70;99426.00;;;;10144193;29;20377;-78
2020/12/07 01:03:09;;;;;;;320.63;90.83;;;;;1.80;99405.00;;;;10156409;29;20321;-81
2020/12/07 01:08:12;;;;;;;295.20;90.50;;;;;1.80;99405.00;;;;10182061;29;20199;-83
2020/12/07 01:13:14;;;;;;;309.03;89.40;;;;;1.80;99405.00;;;;10165349;29;20226;-79
2020/12/07 01:18:17;;;;;;;257.10;80.10;;;;;1.80;99385.00;;;;10172229;29;20285;-88
2020/12/07 01:23:20;;;;;;;261.87;81.47;;;;;1.80;99393.00;;;;10151233;29;20274;-85
2020/12/07 01:28:22;;;;;;;243.73;75.90;;;;;1.80;99386.00;;;;10160370;29;20210;-82
2020/12/07 01:33:24;;;;;;;237.80;77.03;;;;;1.70;99383.00;;;;10150356;29;20265;-84
2020/12/07 01:38:26;;;;;;;243.27;78.43;;;;;1.70;99384.00;;;;10146675;29;20725;-78
2020/12/07 01:43:28;;;;;;;266.33;82.67;;;;;1.70;99387.00;;;;10170270;29;20325;-77
2020/12/07 01:48:31;;;;;;;252.00;77.77;;;;;1.70;99384.00;;;;10163140;29;20620;-78
2020/12/07 01:53:34;;;;;;;245.77;77.63;;;;;1.80;99379.00;;;;10144337;29;20317;-77
2020/12/07 01:58:36;;;;;;;245.60;75.73;;;;;1.70;99385.00;;;;10133604;29;20270;-78
2020/12/07 02:03:38;;;;;;;252.47;75.23;;;;;1.70;99381.00;;;;10151103;29;20570;-83
2020/12/07 02:08:40;;;;;;;238.63;77.73;;;;;1.70;99373.00;;;;10173957;29;20289;-81
2020/12/07 02:13:43;;;;;;;227.17;74.07;;;;;1.70;99370.00;;;;10147116;29;20265;-79
2020/12/07 02:18:45;;;;;;;192.87;68.40;;;;;1.70;99373.00;;;;10156177;29;20225;-84
2020/12/07 02:23:47;;;;;;;191.00;62.83;;;;;1.70;99372.00;;;;10158959;29;20292;-80
2020/12/07 02:28:50;;;;;;;187.70;66.67;;;;;1.60;99360.00;;;;10157910;29;20705;-78
2020/12/07 02:33:52;;;;;;;167.10;64.83;;;;;1.60;99358.00;;;;10156654;29;20222;-87
2020/12/07 02:38:54;;;;;;;162.97;61.27;;;;;1.60;99369.00;;;;10171672;29;20661;-81
2020/12/07 02:43:56;;;;;;;174.27;64.13;;;;;1.50;99362.00;;;;10135126;29;20279;-83
2020/12/07 02:48:58;;;;;;;156.77;60.10;;;;;1.50;99364.00;;;;10182727;29;20669;-84
2020/12/07 02:54:00;;;;;;;133.93;52.53;;;;;1.40;99366.00;;;;10179751;29;20238;-85
2020/12/07 02:59:02;;;;;;;142.27;57.17;;;;;1.30;99356.00;;;;10145804;29;20267;-77
2020/12/07 03:04:04;;;;;;;155.20;58.77;;;;;1.30;99360.00;;;;10140651;29;20242;-81
2020/12/07 03:09:06;;;;;;;146.70;58.40;;;;;1.20;99350.00;;;;10150789;29;20191;-78
2020/12/07 03:14:08;;;;;;;140.87;55.10;;;;;1.20;99364.00;;;;10143147;29;20194;-86
2020/12/07 03:19:11;;;;;;;154.77;59.90;;;;;1.20;99353.00;;;;10145083;29;20234;-82
2020/12/07 03:24:13;;;;;;;148.93;58.93;;;;;1.20;99357.00;;;;10158563;29;20290;-84
2020/12/07 03:29:15;;;;;;;152.07;59.97;;;;;1.20;99349.00;;;;10164226;29;20287;-84
2020/12/07 03:34:17;;;;;;;163.50;61.10;;;;;1.30;99355.00;;;;10190679;29;20211;-82
2020/12/07 03:39:19;;;;;;;159.20;60.17;;;;;1.30;99355.00;;;;10160253;29;20225;-78
2020/12/07 03:44:21;;;;;;;167.97;62.73;;;;;1.30;99356.00;;;;10156812;29;20226;-77
2020/12/07 03:49:23;;;;;;;164.87;61.30;;;;;1.40;99349.00;;;;10161514;29;20237;-80
2020/12/07 03:54:25;;;;;;;167.93;61.80;;;;;1.40;99363.00;;;;10160035;29;20317;-80
2020/12/07 03:59:27;;;;;;;151.10;55.90;;;;;1.40;99360.00;;;;10161596;29;20255;-87
2020/12/07 04:04:41;;;;;;;165.90;59.97;;;;;1.40;99350.00;;;;10147039;29;20227;-77
2020/12/07 04:09:43;;;;;;;147.43;55.23;;;;;1.40;99339.00;;;;10184920;29;20305;-85
2020/12/07 04:14:45;;;;;;;148.60;56.87;;;;;1.50;99343.00;;;;10158062;29;20291;-77
2020/12/07 04:19:47;;;;;;;145.50;56.57;;;;;1.40;99346.00;;;;10159539;29;20274;-82
2020/12/07 04:24:49;;;;;;;164.57;58.73;;;;;1.50;99339.00;;;;10153844;29;20252;-79
2020/12/07 04:29:52;;;;;;;157.50;59.03;;;;;1.50;99333.00;;;;10173726;29;20222;-87
2020/12/07 04:34:54;;;;;;;152.77;57.23;;;;;1.50;99336.00;;;;10178946;29;20222;-85
2020/12/07 04:39:56;;;;;;;150.10;60.97;;;;;1.50;99334.00;;;;10154139;29;20211;-77
2020/12/07 04:44:58;;;;;;;155.90;58.53;;;;;1.50;99329.00;;;;10160724;29;20226;-87
2020/12/07 04:50:06;;;;;;;157.33;58.33;;;;;1.50;99326.00;;;;10150500;29;20310;-78
2020/12/07 04:55:08;;;;;;;165.40;59.50;;;;;1.50;99313.00;;;;10175918;29;20298;-79
2020/12/07 05:00:10;;;;;;;148.97;54.70;;;;;1.40;99307.00;;;;10144485;29;20350;-79
2020/12/07 05:05:12;;;;;;;152.23;60.37;;;;;1.40;99307.00;;;;10169655;29;20225;-81
2020/12/07 05:10:17;;;;;;;169.53;59.73;;;;;1.40;99314.00;;;;10174432;29;20234;-83
2020/12/07 05:15:19;;;;;;;151.77;57.90;;;;;1.40;99313.00;;;;10167809;29;20230;-77
2020/12/07 05:20:24;;;;;;;166.60;58.60;;;;;1.40;99299.00;;;;10159331;29;20281;-81
2020/12/07 05:25:27;;;;;;;151.77;60.43;;;;;1.40;99306.00;;;;10160102;29;20234;-78
2020/12/07 05:30:39;;;;;;;147.70;57.33;;;;;1.40;99297.00;;;;10147392;29;20227;-78
2020/12/07 05:35:51;;;;;;;145.73;54.20;;;;;1.50;99299.00;;;;10171338;29;20207;-80
2020/12/07 05:40:53;;;;;;;146.53;55.77;;;;;1.50;99300.00;;;;10160988;29;20289;-87
2020/12/07 05:45:58;;;;;;;154.60;57.17;;;;;1.50;99305.00;;;;10158305;29;20230;-80
2020/12/07 05:51:05;;;;;;;141.53;52.90;;;;;1.50;99299.00;;;;10151286;29;20258;-84
2020/12/07 05:56:09;;;;;;;125.47;50.80;;;;;1.50;99291.00;;;;10143203;29;20643;-78
2020/12/07 06:01:16;;;;;;;126.33;51.67;;;;;1.50;99296.00;;;;10141292;29;20218;-87
2020/12/07 06:06:33;;;;;;;136.67;54.97;;;;;1.50;99299.00;;;;10172006;29;20227;-79
2020/12/07 06:12:08;;;;;;;129.37;54.00;;;;;1.60;99308.00;;;;10159600;29;20226;-82
2020/12/07 06:17:24;;;;;;;127.50;50.20;;;;;1.50;99298.00;;;;10142532;29;20297;-85
2020/12/07 06:22:29;;;;;;;121.40;49.80;;;;;1.40;99306.00;;;;10167651;29;20258;-85
2020/12/07 06:27:32;;;;;;;139.53;51.20;;;;;1.40;99308.00;;;;10159669;29;20230;-79
2020/12/07 06:32:49;;;;;;;120.10;49.80;;;;;1.40;99319.00;;;;10147076;29;20237;-83
2020/12/07 06:37:51;;;;;;;122.73;50.50;;;;;1.40;99317.00;;;;10180859;29;20210;-87
2020/12/07 06:42:53;;;;;;;118.57;47.30;;;;;1.40;99323.00;;;;10152425;29;20276;-84
2020/12/07 06:48:04;;;;;;;120.87;50.40;;;;;1.40;99326.00;;;;10159483;29;20675;-83
2020/12/07 06:58:38;;;;;;;133.87;52.93;;;;;1.40;99317.00;;;;10197261;29;20666;-82
2020/12/07 07:03:56;;;;;;;117.00;50.47;;;;;1.40;99321.00;;;;10177038;29;20825;-78
2020/12/07 07:08:59;;;;;;;119.60;49.60;;;;;1.40;99314.00;;;;10166632;29;20277;-84
2020/12/07 07:14:01;;;;;;;111.40;45.80;;;;;1.40;99317.00;;;;10142657;29;20195;-79
2020/12/07 07:19:05;;;;;;;114.73;46.67;;;;;1.40;99314.00;;;;10167535;29;20281;-77
2020/12/07 07:24:07;;;;;;;101.50;44.37;;;;;1.40;99318.00;;;;10154831;29;20277;-81
2020/12/07 07:29:21;;;;;;;114.73;47.63;;;;;1.30;99329.00;;;;10142381;29;20618;-83
2020/12/07 07:34:23;;;;;;;95.00;42.37;;;;;1.40;99332.00;;;;10155288;29;20199;-87
2020/12/07 07:39:25;;;;;;;114.17;46.27;;;;;1.40;99331.00;;;;10178416;29;20249;-82
2020/12/07 07:44:27;;;;;;;105.13;45.73;;;;;1.40;99327.00;;;;10176794;29;20932;-88
2020/12/07 07:49:48;;;;;;;109.83;44.50;;;;;1.40;99331.00;;;;10179997;29;20234;-84
2020/12/07 08:16:34;;;;;;;104.53;44.53;;;;;1.70;99363.00;;;;10167295;29;20231;-78
2020/12/07 08:21:36;;;;;;;114.33;48.13;;;;;1.80;99361.00;;;;10156971;29;20227;-85
2020/12/07 08:26:43;;;;;;;100.37;44.00;;;;;1.90;99352.00;;;;10168564;29;20215;-80
2020/12/07 08:31:45;;;;;;;96.87;43.73;;;;;1.90;99340.00;;;;10162585;29;20324;-81
2020/12/07 08:36:47;;;;;;;110.20;46.97;;;;;2.00;99356.00;;;;10175052;29;20289;-80
2020/12/07 08:41:49;;;;;;;98.33;42.40;;;;;2.10;99347.00;;;;10175911;29;20255;-77
2020/12/07 08:46:51;;;;;;;92.37;40.17;;;;;2.30;99339.00;;;;10164545;29;20381;-81
2020/12/07 08:51:53;;;;;;;89.13;41.23;;;;;2.40;99346.00;;;;10161500;29;20243;-83
2020/12/07 08:56:56;;;;;;;97.63;43.93;;;;;2.50;99350.00;;;;10147322;29;20254;-85
2020/12/07 09:01:57;;;;;;;100.63;43.00;;;;;2.60;99348.00;;;;10165516;29;20289;-76
2020/12/07 09:06:59;;;;;;;90.73;41.63;;;;;2.80;99365.00;;;;10151135;29;20269;-84
2020/12/07 09:12:02;;;;;;;96.13;41.97;;;;;2.80;99371.00;;;;10158230;29;20230;-83
2020/12/07 09:17:04;;;;;;;96.83;41.50;;;;;3.00;99361.00;;;;10154494;29;20230;-81
2020/12/07 09:22:06;;;;;;;97.23;41.90;;;;;3.20;99362.00;;;;10168367;29;20257;-78
2020/12/07 09:27:08;;;;;;;98.10;43.37;;;;;3.30;99368.00;;;;10146545;29;20202;-77
2020/12/07 09:32:10;;;;;;;90.93;41.53;;;;;3.40;99378.00;;;;10146320;29;20250;-81
2020/12/07 09:37:12;;;;;;;101.63;43.83;;;;;3.40;99369.00;;;;10146974;29;20242;-77
2020/12/07 09:42:14;;;;;;;88.20;40.93;;;;;3.20;99375.00;;;;10149720;29;20258;-80
2020/12/07 09:47:16;;;;;;;91.47;40.70;;;;;3.40;99369.00;;;;10149105;29;20582;-88
2020/12/07 09:52:19;;;;;;;89.23;40.57;;;;;3.50;99370.00;;;;10160600;29;20764;-82
2020/12/07 09:57:21;;;;;;;94.17;40.07;;;;;3.40;99374.00;;;;10147573;29;20250;-82
2020/12/07 10:02:23;;;;;;;92.20;39.50;;;;;3.40;99384.00;;;;10168058;29;20713;-81
2020/12/07 10:07:25;;;;;;;72.07;31.93;;;;;3.40;99382.00;;;;10158833;29;20654;-83
2020/12/07 10:12:27;;;;;;;85.50;39.97;;;;;3.40;99372.00;;;;10158637;29;20223;-81
2020/12/07 10:17:29;;;;;;;90.00;40.60;;;;;3.40;99370.00;;;;10178074;29;20202;-88
2020/12/07 10:22:31;;;;;;;96.10;40.67;;;;;3.50;99372.00;;;;10176809;29;20318;-78
2020/12/07 10:27:33;;;;;;;81.60;37.43;;;;;3.50;99378.00;;;;10166169;29;20263;-80
2020/12/07 10:32:35;;;;;;;93.73;40.17;;;;;3.40;99370.00;;;;10177770;29;20704;-81
2020/12/07 10:37:37;;;;;;;83.50;40.63;;;;;3.40;99376.00;;;;10144202;29;20238;-79
2020/12/07 10:42:39;;;;;;;85.73;40.73;;;;;3.40;99371.00;;;;10160447;29;20254;-81
2020/12/07 10:47:41;;;;;;;87.03;42.20;;;;;3.40;99374.00;;;;10160695;29;20557;-76
2020/12/07 10:52:44;;;;;;;92.40;42.07;;;;;3.50;99364.00;;;;10166508;29;20267;-86
2020/12/07 10:57:46;;;;;;;83.73;37.97;;;;;3.70;99366.00;;;;10181780;29;20203;-88
2020/12/07 11:02:48;;;;;;;99.53;45.03;;;;;4.00;99359.00;;;;10176249;29;20238;-88
2020/12/07 11:07:53;;;;;;;84.00;42.87;;;;;4.10;99364.00;;;;10154081;29;20280;-87
2020/12/07 11:13:02;;;;;;;86.47;40.83;;;;;4.10;99366.00;;;;10163898;29;20259;-83
2020/12/07 11:18:04;;;;;;;81.23;41.10;;;;;4.30;99375.00;;;;10145687;29;20221;-86
2020/12/07 11:23:06;;;;;;;87.37;41.50;;;;;4.50;99374.00;;;;10187542;29;20259;-79
2020/12/07 11:28:08;;;;;;;69.77;38.13;;;;;4.50;99367.00;;;;10181440;29;20227;-78
2020/12/07 11:33:11;;;;;;;73.93;40.50;;;;;4.50;99377.00;;;;10179935;29;20226;-86
2020/12/07 11:38:22;;;;;;;79.50;41.43;;;;;4.50;99360.00;;;;10172259;29;20218;-85
2020/12/07 11:43:47;;;;;;;69.57;36.80;;;;;4.50;99362.00;;;;10152015;29;20224;-85
2020/12/07 11:48:49;;;;;;;68.60;36.23;;;;;4.40;99347.00;;;;10179726;29;20198;-87
2020/12/07 11:53:54;;;;;;;70.63;38.97;;;;;4.60;99335.00;;;;10185793;29;20641;-89
2020/12/07 11:58:56;;;;;;;71.10;39.37;;;;;5.10;99333.00;;;;10169484;29;20717;-83
2020/12/07 12:03:59;;;;;;;63.63;34.30;;;;;5.60;99326.00;;;;10153239;29;20258;-79
2020/12/07 12:09:04;;;;;;;59.57;34.50;;;;;6.40;99339.00;;;;10176798;29;20563;-88
2020/12/07 12:14:09;;;;;;;55.20;34.80;;;;;6.40;99327.00;;;;10165231;29;20254;-81
2020/12/07 12:19:11;;;;;;;52.10;32.87;;;;;6.50;99324.00;;;;10222917;23;20190;-89
2020/12/07 12:24:14;;;;;;;52.50;32.37;;;;;7.10;99313.00;;;;10153132;29;20325;-82
2020/12/07 12:29:16;;;;;;;45.73;28.00;;;;;7.30;99315.00;;;;10150463;29;20238;-79
2020/12/07 12:34:18;;;;;;;46.67;28.70;;;;;7.30;99317.00;;;;10151849;29;20198;-81
2020/12/07 12:39:21;;;;;;;44.47;27.00;;;;;7.10;99318.00;;;;10168464;29;20249;-88
2020/12/07 12:44:23;;;;;;;45.07;27.60;;;;;7.10;99323.00;;;;10151668;29;20414;-78
2020/12/07 12:49:25;;;;;;;44.37;27.50;;;;;6.50;99323.00;;;;10147643;29;20229;-78
2020/12/07 12:54:28;;;;;;;43.40;27.37;;;;;6.10;99327.00;;;;10150578;29;20207;-77
2020/12/07 12:59:30;;;;;;;52.03;28.80;;;;;6.00;99319.00;;;;10178842;29;20816;-77
2020/12/07 13:04:32;;;;;;;47.47;28.47;;;;;6.10;99319.00;;;;10151092;29;20642;-78
2020/12/07 13:09:34;;;;;;;48.30;28.53;;;;;6.70;99319.00;;;;10152308;29;20246;-78
2020/12/07 13:14:36;;;;;;;49.40;28.97;;;;;6.80;99322.00;;;;10143293;29;20250;-77
2020/12/07 13:19:38;;;;;;;46.67;27.07;;;;;6.50;99316.00;;;;10151256;29;20234;-77
2020/12/07 13:24:47;;;;;;;45.40;26.53;;;;;6.10;99326.00;;;;10140621;29;20223;-78
2020/12/07 13:29:49;;;;;;;48.27;27.87;;;;;5.60;99324.00;;;;10158306;29;20241;-78
2020/12/07 13:34:51;;;;;;;46.73;26.77;;;;;5.40;99334.00;;;;10159677;29;20206;-78
2020/12/07 13:39:53;;;;;;;45.67;27.87;;;;;5.10;99330.00;;;;10146745;29;20226;-77
2020/12/07 13:44:55;;;;;;;50.80;28.10;;;;;5.20;99329.00;;;;10170852;29;21026;-78
2020/12/07 13:49:57;;;;;;;51.23;31.13;;;;;5.40;99335.00;;;;10189766;29;20227;-78
2020/12/07 13:54:59;;;;;;;49.33;28.43;;;;;5.10;99337.00;;;;10158338;29;20599;-77
2020/12/07 14:00:03;;;;;;;47.73;27.57;;;;;4.90;99341.00;;;;10154468;29;20704;-77
2020/12/07 14:05:06;;;;;;;47.93;27.73;;;;;5.10;99354.00;;;;10167027;29;20230;-84
2020/12/07 14:10:11;;;;;;;47.37;27.43;;;;;5.20;99346.00;;;;10146837;29;20297;-78
2020/12/07 14:15:13;;;;;;;46.90;26.27;;;;;5.30;99352.00;;;;10136255;29;20198;-77
2020/12/07 14:20:20;;;;;;;43.90;25.97;;;;;5.40;99355.00;;;;10141920;29;20288;-76
2020/12/07 14:31:22;;;;;;;35.10;22.17;;;;;4.50;99365.00;;;;10153302;29;20765;-78
2020/12/07 14:41:42;;;;;;;33.83;21.67;;;;;4.30;99373.00;;;;10170364;29;20223;-80
2020/12/07 14:46:46;;;;;;;35.40;19.87;;;;;4.20;99384.00;;;;10149001;29;20285;-79
2020/12/07 14:51:54;;;;;;;34.97;19.97;;;;;4.00;99391.00;;;;10147459;29;20247;-79
2020/12/07 15:17:29;;;;;;;40.40;20.37;;;;;3.20;99401.00;;;;10157362;29;20202;-90
2020/12/07 15:22:31;;;;;;;36.53;20.47;;;;;3.00;99408.00;;;;10168176;29;20596;-81
2020/12/07 15:27:35;;;;;;;37.63;22.37;;;;;2.70;99413.00;;;;10186288;29;20557;-78
2020/12/07 15:32:37;;;;;;;41.60;20.63;;;;;2.60;99413.00;;;;10167544;29;20265;-87
2020/12/07 15:37:39;;;;;;;34.83;20.37;;;;;2.50;99410.00;;;;10161515;29;20198;-79
2020/12/07 15:42:42;;;;;;;31.67;19.17;;;;;2.50;99410.00;;;;10148183;29;20253;-78
2020/12/07 15:47:44;;;;;;;33.13;18.17;;;;;2.30;99410.00;;;;10151406;29;20289;-80
2020/12/07 15:52:47;;;;;;;35.43;19.03;;;;;2.10;99421.00;;;;10183437;29;20257;-86
2020/12/07 15:57:49;;;;;;;35.23;19.57;;;;;1.90;99422.00;;;;10161672;29;20623;-80
2020/12/07 16:02:51;;;;;;;36.47;17.93;;;;;1.80;99431.00;;;;10169925;29;20226;-86
2020/12/07 16:07:53;;;;;;;39.30;20.43;;;;;1.80;99442.00;;;;10176859;29;20875;-89
2020/12/07 16:12:55;;;;;;;31.90;19.43;;;;;1.90;99440.00;;;;10151965;29;20305;-87
2020/12/07 16:17:57;;;;;;;27.27;16.40;;;;;1.90;99429.00;;;;10148991;29;20742;-79
2020/12/07 16:22:59;;;;;;;25.23;14.20;;;;;1.90;99430.00;;;;10177479;29;20937;-89
2020/12/07 16:28:02;;;;;;;18.23;12.77;;;;;2.00;99436.00;;;;10164529;29;20290;-79
2020/12/07 16:33:04;;;;;;;22.10;13.13;;;;;2.10;99443.00;;;;10155233;29;20219;-80
2020/12/07 16:38:06;;;;;;;23.90;12.13;;;;;2.30;99442.00;;;;10149302;29;20605;-79
2020/12/07 16:43:08;;;;;;;20.47;12.80;;;;;2.50;99441.00;;;;10159297;29;20301;-86
2020/12/07 16:48:10;;;;;;;23.80;13.17;;;;;2.60;99444.00;;;;10186125;29;20207;-78
2020/12/07 16:53:12;;;;;;;19.33;11.97;;;;;2.70;99443.00;;;;10165373;29;20231;-79
2020/12/07 16:58:16;;;;;;;19.33;11.37;;;;;2.70;99447.00;;;;10164421;29;20879;-87
2020/12/07 17:03:18;;;;;;;19.00;12.00;;;;;2.80;99457.00;;;;10167172;29;20343;-82
2020/12/07 17:08:21;;;;;;;19.30;12.50;;;;;2.80;99466.00;;;;10150771;29;20296;-77
2020/12/07 17:13:23;;;;;;;19.47;11.70;;;;;2.80;99475.00;;;;10170593;29;20234;-89
2020/12/07 17:18:25;;;;;;;19.93;12.83;;;;;2.90;99482.00;;;;10182255;29;20287;-88
2020/12/07 17:23:28;;;;;;;18.23;13.43;;;;;2.90;99483.00;;;;10151890;29;20260;-89
2020/12/07 17:28:30;;;;;;;18.43;13.10;;;;;2.90;99487.00;;;;10160097;29;20211;-86
2020/12/07 17:33:32;;;;;;;18.73;12.93;;;;;3.00;99492.00;;;;10155806;29;20310;-78
2020/12/07 17:38:34;;;;;;;16.60;12.90;;;;;2.90;99488.00;;;;10161580;29;20234;-81
2020/12/07 17:43:37;;;;;;;18.13;12.90;;;;;2.90;99482.00;;;;10143135;29;20235;-85
2020/12/07 17:48:39;;;;;;;18.30;13.93;;;;;2.80;99495.00;;;;10154502;29;20227;-78
2020/12/07 17:53:41;;;;;;;18.03;14.03;;;;;2.70;99496.00;;;;10163770;29;20223;-78
2020/12/07 17:58:44;;;;;;;20.20;13.97;;;;;2.70;99497.00;;;;10153160;29;20219;-78
2020/12/07 18:03:46;;;;;;;20.30;14.73;;;;;2.70;99511.00;;;;10164960;29;20230;-78
2020/12/07 18:08:49;;;;;;;19.87;14.57;;;;;2.80;99515.00;;;;10155916;29;20290;-79
2020/12/07 18:13:52;;;;;;;16.87;13.10;;;;;2.90;99517.00;;;;10152297;29;20615;-79
2020/12/07 18:18:54;;;;;;;16.30;11.37;;;;;3.00;99521.00;;;;10159439;29;20238;-78
2020/12/07 18:23:56;;;;;;;16.63;12.80;;;;;3.00;99520.00;;;;10133819;29;20326;-85
2020/12/07 18:28:58;;;;;;;14.30;10.37;;;;;3.10;99534.00;;;;10168150;29;20293;-78
2020/12/07 18:34:00;;;;;;;12.40;8.40;;;;;3.10;99528.00;;;;10151469;29;20205;-78
2020/12/07 18:39:03;;;;;;;13.03;9.10;;;;;3.10;99526.00;;;;10158326;29;20267;-77
2020/12/07 18:44:05;;;;;;;11.23;8.97;;;;;3.10;99536.00;;;;10153426;29;20795;-78
2020/12/07 18:49:07;;;;;;;11.17;8.87;;;;;3.10;99528.00;;;;10162354;29;20207;-80
2020/12/07 18:54:09;;;;;;;11.27;8.23;;;;;3.00;99539.00;;;;10153750;29;20289;-87
2020/12/07 18:59:11;;;;;;;13.07;8.27;;;;;3.00;99529.00;;;;10176603;29;20250;-80
2020/12/07 19:04:13;;;;;;;11.33;7.70;;;;;2.90;99544.00;;;;10181949;29;20230;-78
2020/12/07 19:09:15;;;;;;;12.47;8.10;;;;;2.90;99534.00;;;;10186661;29;20214;-81
2020/12/07 19:14:17;;;;;;;11.33;8.10;;;;;2.80;99533.00;;;;10163054;29;20535;-78
2020/12/07 19:19:20;;;;;;;12.70;9.20;;;;;2.60;99525.00;;;;10179684;29;20223;-78
2020/12/07 19:24:22;;;;;;;13.23;10.70;;;;;2.60;99527.00;;;;10154658;29;20326;-87
2020/12/07 19:29:24;;;;;;;10.17;7.80;;;;;2.50;99528.00;;;;10161703;29;20764;-88
2020/12/07 19:34:26;;;;;;;13.03;8.70;;;;;2.50;99539.00;;;;10172677;29;20214;-87
2020/12/07 19:39:29;;;;;;;14.73;9.27;;;;;2.50;99546.00;;;;10167235;29;20630;-78
2020/12/07 19:44:30;;;;;;;14.07;10.13;;;;;2.50;99538.00;;;;10157074;29;20318;-78
2020/12/07 19:49:33;;;;;;;14.27;9.97;;;;;2.50;99537.00;;;;10172849;29;20227;-83
2020/12/07 19:54:35;;;;;;;14.17;10.17;;;;;2.50;99543.00;;;;10172435;29;20704;-79
2020/12/07 19:59:37;;;;;;;15.90;11.43;;;;;2.40;99544.00;;;;10154681;29;20305;-85
2020/12/07 20:04:39;;;;;;;15.00;9.83;;;;;2.40;99544.00;;;;10194129;29;20249;-83
2020/12/07 20:09:41;;;;;;;18.17;10.90;;;;;2.30;99542.00;;;;10193976;29;20214;-79
2020/12/07 20:14:43;;;;;;;13.30;10.13;;;;;2.30;99539.00;;;;10148274;29;20238;-79
2020/12/07 20:19:45;;;;;;;16.77;11.70;;;;;2.30;99539.00;;;;10161894;29;20233;-78
2020/12/07 20:24:48;;;;;;;18.97;13.40;;;;;2.30;99538.00;;;;10149933;29;20230;-81
2020/12/07 20:29:50;;;;;;;24.27;16.93;;;;;2.30;99535.00;;;;10196944;29;20230;-85
2020/12/07 20:34:52;;;;;;;20.53;14.30;;;;;2.30;99547.00;;;;10166299;29;20657;-79
2020/12/07 20:39:54;;;;;;;18.23;13.53;;;;;2.30;99554.00;;;;10177545;29;20574;-78
2020/12/07 20:44:56;;;;;;;20.63;15.07;;;;;2.20;99555.00;;;;10186533;29;20227;-79
2020/12/07 20:49:58;;;;;;;21.03;14.97;;;;;2.20;99547.00;;;;10171030;29;20690;-88
2020/12/07 20:55:01;;;;;;;24.23;14.63;;;;;2.20;99544.00;;;;10162126;29;20251;-82
2020/12/07 21:00:05;;;;;;;22.70;16.00;;;;;2.20;99544.00;;;;10151696;29;20223;-80
2020/12/07 21:05:07;;;;;;;24.70;17.60;;;;;2.10;99544.00;;;;10175142;29;20223;-78
2020/12/07 21:10:09;;;;;;;29.07;19.93;;;;;2.10;99553.00;;;;10154986;29;20214;-87
2020/12/07 21:15:11;;;;;;;28.67;18.80;;;;;2.10;99553.00;;;;10165605;29;20876;-79
2020/12/07 21:20:13;;;;;;;26.80;19.60;;;;;2.10;99556.00;;;;10157239;29;20714;-78
2020/12/07 21:25:15;;;;;;;29.20;18.50;;;;;2.00;99555.00;;;;10149303;29;20237;-79
2020/12/07 21:30:17;;;;;;;25.93;18.13;;;;;2.00;99553.00;;;;10158468;29;20222;-89
2020/12/07 21:35:22;;;;;;;25.93;18.03;;;;;2.00;99562.00;;;;10148862;29;20290;-83
2020/12/07 21:40:26;;;;;;;22.50;16.93;;;;;2.00;99554.00;;;;10154943;29;20246;-78
2020/12/07 21:45:28;;;;;;;22.93;16.77;;;;;2.00;99560.00;;;;10171377;29;20274;-80
2020/12/07 21:50:30;;;;;;;25.67;16.70;;;;;2.00;99551.00;;;;10148091;29;20245;-80
2020/12/07 21:55:32;;;;;;;22.50;16.97;;;;;2.10;99563.00;;;;10158016;29;20223;-78
2020/12/07 22:00:34;;;;;;;22.80;16.20;;;;;2.00;99552.00;;;;10171204;29;20284;-80
2020/12/07 22:05:37;;;;;;;25.27;18.23;;;;;2.00;99549.00;;;;10174645;29;20231;-77
2020/12/07 22:10:40;;;;;;;23.10;17.43;;;;;1.90;99562.00;;;;10162797;29;20238;-88
2020/12/07 22:15:42;;;;;;;23.80;17.67;;;;;1.90;99562.00;;;;10145147;29;20226;-78
2020/12/07 22:20:44;;;;;;;26.87;18.87;;;;;1.80;99555.00;;;;10144017;29;20218;-78
2020/12/07 22:25:50;;;;;;;31.50;22.17;;;;;1.80;99551.00;;;;10155679;29;20555;-85
2020/12/07 22:30:52;;;;;;;33.27;22.33;;;;;1.70;99550.00;;;;10150934;29;20262;-80
2020/12/07 22:35:54;;;;;;;33.00;23.87;;;;;1.60;99574.00;;;;10163919;29;20245;-78
2020/12/07 22:40:56;;;;;;;33.90;21.93;;;;;1.50;99562.00;;;;10167328;29;20238;-79
2020/12/07 22:45:58;;;;;;;30.97;21.10;;;;;1.40;99568.00;;;;10161726;29;20312;-78
2020/12/07 22:51:00;;;;;;;27.03;18.73;;;;;1.40;99570.00;;;;10140253;29;20309;-78
2020/12/07 22:56:02;;;;;;;27.80;19.93;;;;;1.30;99568.00;;;;10154646;29;20259;-78
2020/12/07 23:01:09;;;;;;;31.10;21.73;;;;;1.30;99565.00;;;;10161773;29;20318;-81
2020/12/07 23:06:11;;;;;;;29.47;20.80;;;;;1.20;99571.00;;;;10173626;29;20219;-81
2020/12/07 23:11:13;;;;;;;30.07;19.77;;;;;1.20;99565.00;;;;10137910;29;20317;-83
2020/12/07 23:16:15;;;;;;;28.07;19.83;;;;;1.10;99568.00;;;;10140120;29;20225;-80
2020/12/07 23:21:17;;;;;;;30.23;20.27;;;;;1.00;99570.00;;;;10161467;29;20251;-87
2020/12/07 23:26:20;;;;;;;30.40;20.77;;;;;0.90;99577.00;;;;10138336;29;20226;-80
2020/12/07 23:31:22;;;;;;;31.40;21.17;;;;;0.80;99583.00;;;;10154278;29;20226;-81
2020/12/07 23:36:24;;;;;;;32.27;20.43;;;;;0.80;99584.00;;;;10149534;29;20259;-79
2020/12/07 23:41:26;;;;;;;37.77;23.93;;;;;0.90;99585.00;;;;10159409;29;20223;-80
2020/12/07 23:46:27;;;;;;;40.27;23.60;;;;;1.20;99597.00;;;;10152258;29;20282;-86
2020/12/07 23:51:33;;;;;;;35.47;22.73;;;;;1.30;99583.00;;;;10157935;29;20251;-80
2020/12/07 23:56:35;;;;;;;34.43;21.27;;;;;1.40;99588.00;;;;10171894;29;20206;-82
